sensor_id;sensor_type;location;lat;lon;timestamp;pressure;altitude;pressure_sealevel;temperature;humidity
27712;BME280;2377;51.734;8.950;2024-02-21T00:00:12;98429.44;;;7.56;100.00
27712;BME280;2377;51.734;8.950;2024-02-21T00:02:43;98425.84;;;7.51;100.00
27712;BME280;2377;51.734;8.950;2024-02-21T00:05:11;98417.41;;;7.65;100.00
27712;BME280;2377;51.734;8.950;2024-02-21T00:07:40;98423.19;;;7.59;100.00
27712;BME280;2377;51.734;8.950;2024-02-21T00:10:10;98420.03;;;7.57;100.00
27712;BME280;2377;51.734;8.950;2024-02-21T00:12:37;98428.47;;;7.57;100.00
27712;BME280;2377;51.734;8.950;2024-02-21T00:15:09;98410.66;;;7.57;100.00
27712;BME280;2377;51.734;8.950;2024-02-21T00:17:38;98410.84;;;7.56;100.00
27712;BME280;2377;51.734;8.950;2024-02-21T00:20:12;98400.91;;;7.61;100.00
27712;BME280;2377;51.734;8.950;2024-02-21T00:22:40;98409.84;;;7.57;100.00
27712;BME280;2377;51.734;8.950;2024-02-21T00:25:08;98403.28;;;7.48;100.00
27712;BME280;2377;51.734;8.950;2024-02-21T00:27:38;98398.91;;;7.56;100.00
27712;BME280;2377;51.734;8.950;2024-02-21T00:30:07;98400.13;;;7.60;100.00
27712;BME280;2377;51.734;8.950;2024-02-21T00:32:36;98397.75;;;7.59;100.00
27712;BME280;2377;51.734;8.950;2024-02-21T00:35:06;98395.28;;;7.66;100.00
27712;BME280;2377;51.734;8.950;2024-02-21T00:37:33;98386.88;;;7.65;100.00
27712;BME280;2377;51.734;8.950;2024-02-21T00:40:03;98388.03;;;7.62;100.00
27712;BME280;2377;51.734;8.950;2024-02-21T00:42:36;98375.72;;;7.66;100.00
27712;BME280;2377;51.734;8.950;2024-02-21T00:45:11;98384.09;;;7.60;100.00
27712;BME280;2377;51.734;8.950;2024-02-21T00:47:40;98380.56;;;7.61;100.00
27712;BME280;2377;51.734;8.950;2024-02-21T00:50:09;98383.09;;;7.61;100.00
27712;BME280;2377;51.734;8.950;2024-02-21T00:52:39;98372.03;;;7.69;100.00
27712;BME280;2377;51.734;8.950;2024-02-21T00:55:10;98366.88;;;7.62;100.00
27712;BME280;2377;51.734;8.950;2024-02-21T00:57:37;98357.06;;;7.59;100.00
27712;BME280;2377;51.734;8.950;2024-02-21T01:00:07;98351.66;;;7.69;100.00
27712;BME280;2377;51.734;8.950;2024-02-21T01:02:36;98344.00;;;7.62;100.00
27712;BME280;2377;51.734;8.950;2024-02-21T01:05:06;98335.63;;;7.68;100.00
27712;BME280;2377;51.734;8.950;2024-02-21T01:07:33;98328.72;;;7.62;100.00
27712;BME280;2377;51.734;8.950;2024-02-21T01:10:01;98329.69;;;7.61;100.00
27712;BME280;2377;51.734;8.950;2024-02-21T01:12:28;98324.09;;;7.51;100.00
27712;BME280;2377;51.734;8.950;2024-02-21T01:14:56;98328.72;;;7.62;100.00
27712;BME280;2377;51.734;8.950;2024-02-21T01:17:25;98322.50;;;7.65;100.00
27712;BME280;2377;51.734;8.950;2024-02-21T01:19:53;98317.75;;;7.61;100.00
27712;BME280;2377;51.734;8.950;2024-02-21T01:22:23;98303.88;;;7.64;100.00
27712;BME280;2377;51.734;8.950;2024-02-21T01:24:50;98309.78;;;7.65;100.00
27712;BME280;2377;51.734;8.950;2024-02-21T01:27:17;98309.41;;;7.68;100.00
27712;BME280;2377;51.734;8.950;2024-02-21T01:29:48;98302.31;;;7.63;100.00
27712;BME280;2377;51.734;8.950;2024-02-21T01:32:24;98305.84;;;7.62;100.00
27712;BME280;2377;51.734;8.950;2024-02-21T01:34:53;98307.47;;;7.70;100.00
27712;BME280;2377;51.734;8.950;2024-02-21T01:37:22;98299.41;;;7.66;100.00
27712;BME280;2377;51.734;8.950;2024-02-21T01:39:50;98301.00;;;7.67;100.00
27712;BME280;2377;51.734;8.950;2024-02-21T01:42:18;98303.72;;;7.66;100.00
27712;BME280;2377;51.734;8.950;2024-02-21T01:44:48;98297.66;;;7.67;100.00
27712;BME280;2377;51.734;8.950;2024-02-21T01:47:15;98293.00;;;7.70;100.00
27712;BME280;2377;51.734;8.950;2024-02-21T01:49:46;98288.28;;;7.67;100.00
27712;BME280;2377;51.734;8.950;2024-02-21T01:52:17;98284.88;;;7.60;100.00
27712;BME280;2377;51.734;8.950;2024-02-21T01:54:47;98275.09;;;7.63;100.00
27712;BME280;2377;51.734;8.950;2024-02-21T01:57:18;98289.41;;;7.65;100.00
27712;BME280;2377;51.734;8.950;2024-02-21T01:59:46;98278.50;;;7.71;100.00
27712;BME280;2377;51.734;8.950;2024-02-21T02:02:13;98280.50;;;7.75;100.00
27712;BME280;2377;51.734;8.950;2024-02-21T02:04:46;98286.75;;;7.73;100.00
27712;BME280;2377;51.734;8.950;2024-02-21T02:07:15;98279.28;;;7.71;100.00
27712;BME280;2377;51.734;8.950;2024-02-21T02:09:49;98282.44;;;7.73;100.00
27712;BME280;2377;51.734;8.950;2024-02-21T02:12:17;98272.03;;;7.68;100.00
27712;BME280;2377;51.734;8.950;2024-02-21T02:14:45;98263.47;;;7.76;100.00
27712;BME280;2377;51.734;8.950;2024-02-21T02:17:12;98265.25;;;7.75;100.00
27712;BME280;2377;51.734;8.950;2024-02-21T02:19:41;98264.63;;;7.52;100.00
27712;BME280;2377;51.734;8.950;2024-02-21T02:22:21;98256.47;;;7.56;100.00
27712;BME280;2377;51.734;8.950;2024-02-21T02:24:56;98244.78;;;7.62;100.00
27712;BME280;2377;51.734;8.950;2024-02-21T02:27:25;98244.78;;;7.62;100.00
27712;BME280;2377;51.734;8.950;2024-02-21T02:29:52;98239.63;;;7.55;100.00
27712;BME280;2377;51.734;8.950;2024-02-21T02:32:19;98246.09;;;7.58;100.00
27712;BME280;2377;51.734;8.950;2024-02-21T02:34:50;98242.47;;;7.67;100.00
27712;BME280;2377;51.734;8.950;2024-02-21T02:37:17;98234.09;;;7.73;100.00
27712;BME280;2377;51.734;8.950;2024-02-21T02:39:45;98230.78;;;7.73;100.00
27712;BME280;2377;51.734;8.950;2024-02-21T02:42:17;98235.69;;;7.74;100.00
27712;BME280;2377;51.734;8.950;2024-02-21T02:44:44;98237.00;;;7.70;100.00
27712;BME280;2377;51.734;8.950;2024-02-21T02:47:12;98233.75;;;7.76;100.00
27712;BME280;2377;51.734;8.950;2024-02-21T02:49:40;98225.69;;;7.73;100.00
27712;BME280;2377;51.734;8.950;2024-02-21T02:52:11;98230.00;;;7.72;100.00
27712;BME280;2377;51.734;8.950;2024-02-21T02:54:38;98227.44;;;7.72;100.00
27712;BME280;2377;51.734;8.950;2024-02-21T02:57:06;98227.81;;;7.69;100.00
27712;BME280;2377;51.734;8.950;2024-02-21T02:59:35;98223.69;;;7.68;100.00
27712;BME280;2377;51.734;8.950;2024-02-21T03:02:02;98217.38;;;7.64;100.00
27712;BME280;2377;51.734;8.950;2024-02-21T03:04:30;98220.19;;;7.69;100.00
27712;BME280;2377;51.734;8.950;2024-02-21T03:06:58;98209.41;;;7.67;100.00
27712;BME280;2377;51.734;8.950;2024-02-21T03:09:29;98210.56;;;7.65;100.00
27712;BME280;2377;51.734;8.950;2024-02-21T03:11:57;98207.03;;;7.66;100.00
27712;BME280;2377;51.734;8.950;2024-02-21T03:14:31;98203.72;;;7.65;100.00
27712;BME280;2377;51.734;8.950;2024-02-21T03:17:02;98195.00;;;7.53;100.00
27712;BME280;2377;51.734;8.950;2024-02-21T03:19:30;98191.59;;;7.67;100.00
27712;BME280;2377;51.734;8.950;2024-02-21T03:21:59;98188.31;;;7.52;100.00
27712;BME280;2377;51.734;8.950;2024-02-21T03:24:27;98189.00;;;7.60;100.00
27712;BME280;2377;51.734;8.950;2024-02-21T03:26:56;98190.56;;;7.61;100.00
27712;BME280;2377;51.734;8.950;2024-02-21T03:29:25;98186.28;;;7.62;100.00
27712;BME280;2377;51.734;8.950;2024-02-21T03:31:53;98175.22;;;7.55;100.00
27712;BME280;2377;51.734;8.950;2024-02-21T03:34:21;98166.47;;;7.57;100.00
27712;BME280;2377;51.734;8.950;2024-02-21T03:36:50;98176.34;;;7.67;100.00
27712;BME280;2377;51.734;8.950;2024-02-21T03:39:27;98165.00;;;7.70;100.00
27712;BME280;2377;51.734;8.950;2024-02-21T03:41:57;98157.53;;;7.68;100.00
27712;BME280;2377;51.734;8.950;2024-02-21T03:44:26;98147.59;;;7.73;100.00
27712;BME280;2377;51.734;8.950;2024-02-21T03:46:55;98155.66;;;7.77;99.17
27712;BME280;2377;51.734;8.950;2024-02-21T03:49:24;98154.63;;;7.71;99.60
27712;BME280;2377;51.734;8.950;2024-02-21T03:51:53;98158.16;;;7.70;99.32
27712;BME280;2377;51.734;8.950;2024-02-21T03:54:21;98166.22;;;7.74;99.48
27712;BME280;2377;51.734;8.950;2024-02-21T03:56:48;98163.06;;;7.72;99.26
27712;BME280;2377;51.734;8.950;2024-02-21T03:59:16;98165.06;;;7.76;99.14
27712;BME280;2377;51.734;8.950;2024-02-21T04:01:44;98169.72;;;7.73;98.81
27712;BME280;2377;51.734;8.950;2024-02-21T04:04:13;98167.72;;;7.68;99.19
27712;BME280;2377;51.734;8.950;2024-02-21T04:06:48;98163.59;;;7.67;99.06
27712;BME280;2377;51.734;8.950;2024-02-21T04:09:16;98169.09;;;7.71;99.10
27712;BME280;2377;51.734;8.950;2024-02-21T04:11:46;98167.66;;;7.61;98.69
27712;BME280;2377;51.734;8.950;2024-02-21T04:14:15;98185.16;;;7.71;98.08
27712;BME280;2377;51.734;8.950;2024-02-21T04:16:42;98186.56;;;7.74;98.75
27712;BME280;2377;51.734;8.950;2024-02-21T04:19:10;98188.13;;;7.75;97.83
27712;BME280;2377;51.734;8.950;2024-02-21T04:21:40;98190.50;;;7.76;97.47
27712;BME280;2377;51.734;8.950;2024-02-21T04:24:16;98185.97;;;7.72;97.35
27712;BME280;2377;51.734;8.950;2024-02-21T04:26:43;98181.09;;;7.77;97.51
27712;BME280;2377;51.734;8.950;2024-02-21T04:29:14;98180.88;;;7.72;97.62
27712;BME280;2377;51.734;8.950;2024-02-21T04:31:42;98182.47;;;7.79;97.35
27712;BME280;2377;51.734;8.950;2024-02-21T04:34:09;98177.22;;;7.81;96.23
27712;BME280;2377;51.734;8.950;2024-02-21T04:36:40;98180.72;;;7.80;96.03
27712;BME280;2377;51.734;8.950;2024-02-21T04:39:07;98182.59;;;7.71;95.77
27712;BME280;2377;51.734;8.950;2024-02-21T04:41:36;98181.88;;;7.77;96.32
27712;BME280;2377;51.734;8.950;2024-02-21T04:44:04;98191.72;;;7.87;95.82
27712;BME280;2377;51.734;8.950;2024-02-21T04:46:32;98185.75;;;7.73;95.82
27712;BME280;2377;51.734;8.950;2024-02-21T04:48:59;98182.25;;;7.74;96.45
27712;BME280;2377;51.734;8.950;2024-02-21T04:51:34;98178.03;;;7.60;96.37
27712;BME280;2377;51.734;8.950;2024-02-21T04:54:02;98172.81;;;7.68;96.03
27712;BME280;2377;51.734;8.950;2024-02-21T04:56:31;98178.09;;;7.67;96.08
27712;BME280;2377;51.734;8.950;2024-02-21T04:59:01;98184.31;;;7.64;96.85
27712;BME280;2377;51.734;8.950;2024-02-21T05:01:28;98177.50;;;7.65;96.13
27712;BME280;2377;51.734;8.950;2024-02-21T05:03:57;98184.97;;;7.73;95.87
27712;BME280;2377;51.734;8.950;2024-02-21T05:06:24;98168.16;;;7.72;96.54
27712;BME280;2377;51.734;8.950;2024-02-21T05:08:52;98169.09;;;7.71;96.31
27712;BME280;2377;51.734;8.950;2024-02-21T05:11:26;98172.41;;;7.65;95.44
27712;BME280;2377;51.734;8.950;2024-02-21T05:13:55;98176.50;;;7.66;96.80
27712;BME280;2377;51.734;8.950;2024-02-21T05:16:24;98172.75;;;7.61;96.66
27712;BME280;2377;51.734;8.950;2024-02-21T05:18:53;98178.66;;;7.62;96.39
27712;BME280;2377;51.734;8.950;2024-02-21T05:21:22;98185.72;;;7.67;96.20
27712;BME280;2377;51.734;8.950;2024-02-21T05:23:52;98182.81;;;7.70;95.95
27712;BME280;2377;51.734;8.950;2024-02-21T05:26:23;98177.13;;;7.68;95.59
27712;BME280;2377;51.734;8.950;2024-02-21T05:28:57;98179.44;;;7.62;96.02
27712;BME280;2377;51.734;8.950;2024-02-21T05:31:55;98188.81;;;7.62;96.30
27712;BME280;2377;51.734;8.950;2024-02-21T05:34:24;98203.72;;;7.65;96.49
27712;BME280;2377;51.734;8.950;2024-02-21T05:36:52;98199.00;;;7.62;96.63
27712;BME280;2377;51.734;8.950;2024-02-21T05:39:28;98183.53;;;7.63;96.82
27712;BME280;2377;51.734;8.950;2024-02-21T05:41:57;98169.03;;;7.64;96.39
27712;BME280;2377;51.734;8.950;2024-02-21T05:44:27;98167.94;;;7.73;95.88
27712;BME280;2377;51.734;8.950;2024-02-21T05:47:07;98163.66;;;7.74;95.14
27712;BME280;2377;51.734;8.950;2024-02-21T05:49:36;98157.91;;;7.65;95.77
27712;BME280;2377;51.734;8.950;2024-02-21T05:52:05;98155.22;;;7.73;96.35
27712;BME280;2377;51.734;8.950;2024-02-21T05:54:34;98145.44;;;7.70;96.31
27712;BME280;2377;51.734;8.950;2024-02-21T05:57:04;98126.63;;;7.71;96.58
27712;BME280;2377;51.734;8.950;2024-02-21T05:59:33;98121.97;;;7.75;96.36
27712;BME280;2377;51.734;8.950;2024-02-21T06:02:09;98130.94;;;7.71;95.81
27712;BME280;2377;51.734;8.950;2024-02-21T06:04:36;98129.56;;;7.68;96.24
27712;BME280;2377;51.734;8.950;2024-02-21T06:07:05;98119.97;;;7.70;96.60
27712;BME280;2377;51.734;8.950;2024-02-21T06:09:32;98117.38;;;7.63;96.01
27712;BME280;2377;51.734;8.950;2024-02-21T06:12:01;98116.44;;;7.71;95.92
27712;BME280;2377;51.734;8.950;2024-02-21T06:14:29;98113.34;;;7.69;96.27
27712;BME280;2377;51.734;8.950;2024-02-21T06:16:56;98113.34;;;7.69;95.99
27712;BME280;2377;51.734;8.950;2024-02-21T06:19:25;98105.53;;;7.77;95.92
27712;BME280;2377;51.734;8.950;2024-02-21T06:21:52;98107.25;;;7.70;95.76
27712;BME280;2377;51.734;8.950;2024-02-21T06:24:19;98114.94;;;7.77;95.28
27712;BME280;2377;51.734;8.950;2024-02-21T06:26:47;98112.97;;;7.72;95.93
27712;BME280;2377;51.734;8.950;2024-02-21T06:29:17;98113.34;;;7.69;95.98
27712;BME280;2377;51.734;8.950;2024-02-21T06:31:45;98108.47;;;7.74;96.40
27712;BME280;2377;51.734;8.950;2024-02-21T06:34:14;98106.44;;;7.63;96.36
27712;BME280;2377;51.734;8.950;2024-02-21T06:36:45;98124.66;;;7.67;96.04
27712;BME280;2377;51.734;8.950;2024-02-21T06:39:13;98121.69;;;7.63;95.84
27712;BME280;2377;51.734;8.950;2024-02-21T06:41:52;98123.63;;;7.61;95.30
27712;BME280;2377;51.734;8.950;2024-02-21T06:44:21;98126.41;;;7.66;96.67
27712;BME280;2377;51.734;8.950;2024-02-21T06:46:48;98109.34;;;7.60;96.48
27712;BME280;2377;51.734;8.950;2024-02-21T06:49:16;98109.03;;;7.70;96.30
27712;BME280;2377;51.734;8.950;2024-02-21T06:51:47;98103.16;;;7.69;95.82
27712;BME280;2377;51.734;8.950;2024-02-21T06:54:17;98104.88;;;7.62;96.33
27712;BME280;2377;51.734;8.950;2024-02-21T06:56:46;98095.28;;;7.64;95.40
27712;BME280;2377;51.734;8.950;2024-02-21T06:59:13;98095.31;;;7.71;95.46
27712;BME280;2377;51.734;8.950;2024-02-21T07:01:45;98096.16;;;7.78;95.66
27712;BME280;2377;51.734;8.950;2024-02-21T07:04:16;98089.53;;;7.83;94.50
27712;BME280;2377;51.734;8.950;2024-02-21T07:06:52;98082.88;;;7.82;95.36
27712;BME280;2377;51.734;8.950;2024-02-21T07:09:20;98079.72;;;7.80;95.00
27712;BME280;2377;51.734;8.950;2024-02-21T07:11:47;98068.97;;;7.85;94.53
27712;BME280;2377;51.734;8.950;2024-02-21T07:14:15;98080.16;;;7.84;95.10
27712;BME280;2377;51.734;8.950;2024-02-21T07:16:45;98074.44;;;7.82;93.08
27712;BME280;2377;51.734;8.950;2024-02-21T07:19:22;98075.78;;;7.78;93.62
27712;BME280;2377;51.734;8.950;2024-02-21T07:21:49;98071.88;;;7.75;93.83
27712;BME280;2377;51.734;8.950;2024-02-21T07:24:18;98070.91;;;7.83;93.55
27712;BME280;2377;51.734;8.950;2024-02-21T07:26:47;98068.38;;;7.83;93.36
27712;BME280;2377;51.734;8.950;2024-02-21T07:29:17;98068.59;;;7.81;93.19
27712;BME280;2377;51.734;8.950;2024-02-21T07:31:45;98074.88;;;7.86;93.18
27712;BME280;2377;51.734;8.950;2024-02-21T07:34:16;98076.25;;;7.88;92.26
27712;BME280;2377;51.734;8.950;2024-02-21T07:36:45;98084.66;;;7.89;92.42
27712;BME280;2377;51.734;8.950;2024-02-21T07:39:15;98079.41;;;7.97;92.71
27712;BME280;2377;51.734;8.950;2024-02-21T07:41:44;98089.97;;;7.94;91.68
27712;BME280;2377;51.734;8.950;2024-02-21T07:44:12;98082.97;;;8.02;92.62
27712;BME280;2377;51.734;8.950;2024-02-21T07:46:40;98076.69;;;7.98;91.95
27712;BME280;2377;51.734;8.950;2024-02-21T07:49:08;98079.06;;;8.00;91.66
27712;BME280;2377;51.734;8.950;2024-02-21T07:51:38;98079.66;;;8.02;91.84
27712;BME280;2377;51.734;8.950;2024-02-21T07:54:09;98097.06;;;7.98;92.20
27712;BME280;2377;51.734;8.950;2024-02-21T07:56:36;98080.63;;;8.01;91.97
27712;BME280;2377;51.734;8.950;2024-02-21T07:59:05;98080.22;;;8.04;91.42
27712;BME280;2377;51.734;8.950;2024-02-21T08:01:33;98073.22;;;8.13;91.99
27712;BME280;2377;51.734;8.950;2024-02-21T08:04:04;98074.44;;;8.17;91.99
27712;BME280;2377;51.734;8.950;2024-02-21T08:06:31;98075.00;;;8.12;91.15
27712;BME280;2377;51.734;8.950;2024-02-21T08:08:58;98074.59;;;8.15;91.19
27712;BME280;2377;51.734;8.950;2024-02-21T08:11:30;98069.94;;;8.19;90.76
27712;BME280;2377;51.734;8.950;2024-02-21T08:13:57;98060.75;;;8.24;90.87
27712;BME280;2377;51.734;8.950;2024-02-21T08:16:27;98070.75;;;8.26;90.41
27712;BME280;2377;51.734;8.950;2024-02-21T08:18:54;98062.56;;;8.37;90.24
27712;BME280;2377;51.734;8.950;2024-02-21T08:21:25;98068.22;;;8.39;90.04
27712;BME280;2377;51.734;8.950;2024-02-21T08:24:01;98060.84;;;8.44;90.37
27712;BME280;2377;51.734;8.950;2024-02-21T08:26:28;98064.75;;;8.47;89.43
27712;BME280;2377;51.734;8.950;2024-02-21T08:28:59;98050.06;;;8.42;89.91
27712;BME280;2377;51.734;8.950;2024-02-21T08:31:29;98045.50;;;8.38;88.52
27712;BME280;2377;51.734;8.950;2024-02-21T08:33:58;98047.84;;;8.39;89.18
27712;BME280;2377;51.734;8.950;2024-02-21T08:36:35;98049.41;;;8.34;89.13
27712;BME280;2377;51.734;8.950;2024-02-21T08:39:06;98046.69;;;8.35;88.79
27712;BME280;2377;51.734;8.950;2024-02-21T08:41:35;98033.72;;;8.37;89.54
27712;BME280;2377;51.734;8.950;2024-02-21T08:44:03;98027.53;;;8.46;88.96
27712;BME280;2377;51.734;8.950;2024-02-21T08:46:35;98025.38;;;8.50;89.10
27712;BME280;2377;51.734;8.950;2024-02-21T08:49:04;98023.81;;;8.55;88.98
27712;BME280;2377;51.734;8.950;2024-02-21T08:51:34;98024.00;;;8.60;88.50
27712;BME280;2377;51.734;8.950;2024-02-21T08:54:03;98019.34;;;8.64;88.00
27712;BME280;2377;51.734;8.950;2024-02-21T08:56:32;98022.06;;;8.62;87.17
27712;BME280;2377;51.734;8.950;2024-02-21T08:59:00;98023.81;;;8.55;86.60
27712;BME280;2377;51.734;8.950;2024-02-21T09:01:29;98018.72;;;8.62;87.21
27712;BME280;2377;51.734;8.950;2024-02-21T09:04:12;98008.16;;;8.65;86.99
27712;BME280;2377;51.734;8.950;2024-02-21T09:06:43;98012.06;;;8.67;85.98
27712;BME280;2377;51.734;8.950;2024-02-21T09:09:13;98006.00;;;8.68;85.99
27712;BME280;2377;51.734;8.950;2024-02-21T09:11:40;98009.72;;;8.66;84.98
27712;BME280;2377;51.734;8.950;2024-02-21T09:14:08;98013.84;;;8.54;84.68
27712;BME280;2377;51.734;8.950;2024-02-21T09:16:35;98010.91;;;8.63;84.14
27712;BME280;2377;51.734;8.950;2024-02-21T09:19:08;98012.88;;;8.61;83.77
27712;BME280;2377;51.734;8.950;2024-02-21T09:21:38;98011.06;;;8.55;81.68
27712;BME280;2377;51.734;8.950;2024-02-21T09:24:07;98009.53;;;8.54;82.91
27712;BME280;2377;51.734;8.950;2024-02-21T09:26:36;98007.56;;;8.56;82.09
27712;BME280;2377;51.734;8.950;2024-02-21T09:29:05;98004.22;;;8.62;82.32
27712;BME280;2377;51.734;8.950;2024-02-21T09:31:35;98005.41;;;8.66;81.94
27712;BME280;2377;51.734;8.950;2024-02-21T09:34:02;98005.78;;;8.70;81.72
27712;BME280;2377;51.734;8.950;2024-02-21T09:36:36;98005.97;;;8.55;81.35
27712;BME280;2377;51.734;8.950;2024-02-21T09:39:07;98006.78;;;8.62;82.67
27712;BME280;2377;51.734;8.950;2024-02-21T09:41:44;98012.66;;;8.70;83.13
27712;BME280;2377;51.734;8.950;2024-02-21T09:44:15;98013.25;;;8.78;83.81
27712;BME280;2377;51.734;8.950;2024-02-21T09:46:52;98008.16;;;8.78;82.10
27712;BME280;2377;51.734;8.950;2024-02-21T09:49:32;98009.53;;;8.81;82.49
27712;BME280;2377;51.734;8.950;2024-02-21T09:52:04;98007.97;;;8.80;81.37
27712;BME280;2377;51.734;8.950;2024-02-21T09:54:34;98004.63;;;8.86;82.19
27712;BME280;2377;51.734;8.950;2024-02-21T09:57:04;98000.91;;;8.88;82.46
27712;BME280;2377;51.734;8.950;2024-02-21T09:59:33;97995.22;;;8.93;82.75
27712;BME280;2377;51.734;8.950;2024-02-21T10:02:01;97991.91;;;8.99;81.63
27712;BME280;2377;51.734;8.950;2024-02-21T10:04:30;97986.03;;;9.05;81.82
27712;BME280;2377;51.734;8.950;2024-02-21T10:06:58;97976.78;;;9.04;82.45
27712;BME280;2377;51.734;8.950;2024-02-21T10:09:29;97977.78;;;9.03;82.16
27712;BME280;2377;51.734;8.950;2024-02-21T10:12:08;97964.03;;;9.11;81.84
27712;BME280;2377;51.734;8.950;2024-02-21T10:14:36;97967.56;;;9.10;82.29
27712;BME280;2377;51.734;8.950;2024-02-21T10:17:05;97957.34;;;9.17;81.54
27712;BME280;2377;51.734;8.950;2024-02-21T10:19:36;97958.16;;;9.10;81.59
27712;BME280;2377;51.734;8.950;2024-02-21T10:22:08;97958.53;;;9.21;81.89
27712;BME280;2377;51.734;8.950;2024-02-21T10:24:44;97948.72;;;9.24;81.44
27712;BME280;2377;51.734;8.950;2024-02-21T10:27:12;97944.41;;;9.25;80.61
27712;BME280;2377;51.734;8.950;2024-02-21T10:29:40;97942.41;;;9.34;80.37
27712;BME280;2377;51.734;8.950;2024-02-21T10:32:12;97943.56;;;9.31;80.12
27712;BME280;2377;51.734;8.950;2024-02-21T10:34:42;97940.84;;;9.26;80.26
27712;BME280;2377;51.734;8.950;2024-02-21T10:37:12;97927.88;;;9.34;80.26
27712;BME280;2377;51.734;8.950;2024-02-21T10:39:46;97929.44;;;9.42;80.23
27712;BME280;2377;51.734;8.950;2024-02-21T10:42:20;97920.38;;;9.52;80.17
27712;BME280;2377;51.734;8.950;2024-02-21T10:44:51;97916.03;;;9.60;80.25
27712;BME280;2377;51.734;8.950;2024-02-21T10:47:22;97923.69;;;9.60;80.30
27712;BME280;2377;51.734;8.950;2024-02-21T10:50:02;97914.63;;;9.64;79.28
27712;BME280;2377;51.734;8.950;2024-02-21T10:52:54;97915.56;;;9.76;79.61
27712;BME280;2377;51.734;8.950;2024-02-21T10:55:33;97899.81;;;9.86;79.13
27712;BME280;2377;51.734;8.950;2024-02-21T10:58:05;97904.88;;;9.92;78.91
27712;BME280;2377;51.734;8.950;2024-02-21T11:00:35;97907.00;;;9.95;77.92
27712;BME280;2377;51.734;8.950;2024-02-21T11:03:05;97906.84;;;9.90;77.50
27712;BME280;2377;51.734;8.950;2024-02-21T11:05:35;97913.66;;;9.97;77.91
27712;BME280;2377;51.734;8.950;2024-02-21T11:08:06;97905.22;;;9.96;77.27
27712;BME280;2377;51.734;8.950;2024-02-21T11:10:37;97897.38;;;9.98;77.54
27712;BME280;2377;51.734;8.950;2024-02-21T11:13:08;97892.00;;;10.06;78.43
27712;BME280;2377;51.734;8.950;2024-02-21T11:15:36;97880.81;;;10.07;77.90
27712;BME280;2377;51.734;8.950;2024-02-21T11:18:05;97875.72;;;10.07;77.32
27712;BME280;2377;51.734;8.950;2024-02-21T11:20:35;97869.75;;;10.13;77.90
27712;BME280;2377;51.734;8.950;2024-02-21T11:23:10;97858.34;;;10.15;77.17
27712;BME280;2377;51.734;8.950;2024-02-21T11:26:05;97862.25;;;10.18;77.35
27712;BME280;2377;51.734;8.950;2024-02-21T11:28:34;97860.66;;;10.24;77.30
27712;BME280;2377;51.734;8.950;2024-02-21T11:31:11;97861.91;;;10.14;75.56
27712;BME280;2377;51.734;8.950;2024-02-21T11:33:40;97855.16;;;10.20;76.71
27712;BME280;2377;51.734;8.950;2024-02-21T11:36:11;97849.47;;;10.18;76.67
27712;BME280;2377;51.734;8.950;2024-02-21T11:38:39;97838.97;;;10.08;76.63
27712;BME280;2377;51.734;8.950;2024-02-21T11:41:10;97832.31;;;10.07;76.37
27712;BME280;2377;51.734;8.950;2024-02-21T11:43:38;97827.34;;;10.12;77.04
27712;BME280;2377;51.734;8.950;2024-02-21T11:46:15;97819.25;;;10.15;77.04
27712;BME280;2377;51.734;8.950;2024-02-21T11:48:43;97807.06;;;10.17;78.11
27712;BME280;2377;51.734;8.950;2024-02-21T11:51:24;97806.00;;;10.25;77.87
27712;BME280;2377;51.734;8.950;2024-02-21T11:53:55;97793.47;;;10.23;77.77
27712;BME280;2377;51.734;8.950;2024-02-21T11:56:28;97800.69;;;10.26;77.77
27712;BME280;2377;51.734;8.950;2024-02-21T11:58:59;97785.69;;;10.36;77.61
27712;BME280;2377;51.734;8.950;2024-02-21T12:01:27;97791.81;;;10.35;77.09
27712;BME280;2377;51.734;8.950;2024-02-21T12:03:55;97776.69;;;10.34;76.55
27712;BME280;2377;51.734;8.950;2024-02-21T12:06:23;97768.25;;;10.33;76.57
27712;BME280;2377;51.734;8.950;2024-02-21T12:08:57;97763.91;;;10.34;77.17
27712;BME280;2377;51.734;8.950;2024-02-21T12:11:30;97764.84;;;10.40;77.36
27712;BME280;2377;51.734;8.950;2024-02-21T12:14:03;97756.81;;;10.36;77.73
27712;BME280;2377;51.734;8.950;2024-02-21T12:16:32;97749.53;;;10.40;77.66
27712;BME280;2377;51.734;8.950;2024-02-21T12:19:00;97747.38;;;10.36;77.47
27712;BME280;2377;51.734;8.950;2024-02-21T12:21:32;97740.13;;;10.33;77.54
27712;BME280;2377;51.734;8.950;2024-02-21T12:24:13;97731.47;;;10.34;77.98
27712;BME280;2377;51.734;8.950;2024-02-21T12:26:43;97740.34;;;10.32;78.21
27712;BME280;2377;51.734;8.950;2024-02-21T12:29:10;97743.84;;;10.38;78.39
27712;BME280;2377;51.734;8.950;2024-02-21T12:31:39;97740.72;;;10.35;78.53
27712;BME280;2377;51.734;8.950;2024-02-21T12:34:08;97731.25;;;10.36;79.15
27712;BME280;2377;51.734;8.950;2024-02-21T12:36:40;97731.00;;;10.44;79.63
27712;BME280;2377;51.734;8.950;2024-02-21T12:39:13;97729.22;;;10.45;79.54
27712;BME280;2377;51.734;8.950;2024-02-21T12:41:45;97727.44;;;10.45;79.73
27712;BME280;2377;51.734;8.950;2024-02-21T12:44:15;97715.03;;;10.49;79.70
27712;BME280;2377;51.734;8.950;2024-02-21T12:46:44;97712.31;;;10.44;79.70
27712;BME280;2377;51.734;8.950;2024-02-21T12:49:26;97705.44;;;10.44;79.94
27712;BME280;2377;51.734;8.950;2024-02-21T12:51:56;97701.09;;;10.45;80.13
27712;BME280;2377;51.734;8.950;2024-02-21T12:54:23;97697.78;;;10.44;80.13
27712;BME280;2377;51.734;8.950;2024-02-21T12:56:53;97703.03;;;10.49;80.15
27712;BME280;2377;51.734;8.950;2024-02-21T12:59:21;97695.50;;;10.54;79.97
27712;BME280;2377;51.734;8.950;2024-02-21T13:01:49;97678.88;;;10.64;80.42
27712;BME280;2377;51.734;8.950;2024-02-21T13:04:18;97673.81;;;10.75;80.78
27712;BME280;2377;51.734;8.950;2024-02-21T13:06:47;97653.03;;;10.84;80.47
27712;BME280;2377;51.734;8.950;2024-02-21T13:09:17;97651.28;;;10.84;79.45
27712;BME280;2377;51.734;8.950;2024-02-21T13:11:46;97648.63;;;10.91;79.67
27712;BME280;2377;51.734;8.950;2024-02-21T13:14:18;97643.28;;;10.92;79.39
27712;BME280;2377;51.734;8.950;2024-02-21T13:16:53;97636.38;;;10.93;79.48
27712;BME280;2377;51.734;8.950;2024-02-21T13:19:20;97643.09;;;10.94;79.19
27712;BME280;2377;51.734;8.950;2024-02-21T13:21:48;97656.84;;;10.93;78.44
27712;BME280;2377;51.734;8.950;2024-02-21T13:24:17;97647.72;;;10.85;78.84
27712;BME280;2377;51.734;8.950;2024-02-21T13:26:47;97645.81;;;10.81;77.77
27712;BME280;2377;51.734;8.950;2024-02-21T13:29:14;97634.81;;;10.80;78.42
27712;BME280;2377;51.734;8.950;2024-02-21T13:31:47;97597.72;;;10.89;78.18